createdAt,value
2023-03-11T00:03:19.920Z,100.00
2023-03-11T00:08:26.370Z,100.00
2023-03-11T00:13:31.438Z,100.00
2023-03-11T00:18:34.848Z,100.00
2023-03-11T00:23:38.021Z,100.00
2023-03-11T00:28:43.803Z,100.00
2023-03-11T00:33:46.902Z,100.00
2023-03-11T00:38:50.134Z,100.00
2023-03-11T00:43:58.949Z,100.00
2023-03-11T00:49:02.124Z,100.00
2023-03-11T00:54:05.508Z,100.00
2023-03-11T00:59:10.022Z,100.00
2023-03-11T01:04:13.369Z,100.00
2023-03-11T01:09:16.563Z,100.00
2023-03-11T01:14:21.630Z,100.00
2023-03-11T01:19:24.850Z,100.00
2023-03-11T01:24:28.090Z,100.00
2023-03-11T01:29:32.697Z,100.00
2023-03-11T01:34:36.283Z,100.00
2023-03-11T01:39:40.694Z,100.00
2023-03-11T01:44:45.366Z,100.00
2023-03-11T01:49:50.159Z,100.00
2023-03-11T01:54:53.473Z,100.00
2023-03-11T02:00:03.306Z,100.00
2023-03-11T02:05:07.172Z,100.00
2023-03-11T02:10:13.725Z,100.00
2023-03-11T02:15:19.351Z,100.00
2023-03-11T02:20:34.658Z,100.00
2023-03-11T02:25:44.663Z,100.00
2023-03-11T02:30:51.602Z,100.00
2023-03-11T02:35:57.875Z,100.00
2023-03-11T02:41:05.723Z,100.00
2023-03-11T02:46:12.794Z,100.00
2023-03-11T02:51:16.472Z,100.00
2023-03-11T02:56:20.064Z,100.00
2023-03-11T03:01:29.297Z,100.00
2023-03-11T03:06:32.567Z,100.00
2023-03-11T03:11:35.802Z,100.00
2023-03-11T03:16:40.652Z,100.00
2023-03-11T03:21:44.093Z,100.00
2023-03-11T03:26:47.216Z,100.00
2023-03-11T03:31:51.910Z,100.00
2023-03-11T03:36:55.320Z,100.00
2023-03-11T03:41:58.434Z,100.00
2023-03-11T03:47:02.900Z,100.00
2023-03-11T03:52:06.852Z,100.00
2023-03-11T03:57:10.798Z,100.00
2023-03-11T04:02:15.543Z,100.00
2023-03-11T04:07:18.742Z,100.00
2023-03-11T04:12:21.854Z,100.00
2023-03-11T04:17:26.417Z,100.00
2023-03-11T04:22:29.682Z,100.00
2023-03-11T04:27:32.896Z,100.00
2023-03-11T04:32:37.445Z,100.00
2023-03-11T04:37:40.709Z,100.00
2023-03-11T04:42:44.172Z,100.00
2023-03-11T04:47:50.654Z,100.00
2023-03-11T04:52:53.863Z,100.00
2023-03-11T04:57:57.108Z,100.00
2023-03-11T05:03:01.953Z,100.00
2023-03-11T05:08:05.491Z,100.00
2023-03-11T05:13:08.650Z,100.00
2023-03-11T05:18:13.275Z,100.00
2023-03-11T05:23:16.551Z,100.00
2023-03-11T05:28:19.769Z,100.00
2023-03-11T05:33:24.441Z,100.00
2023-03-11T05:38:27.772Z,100.00
2023-03-11T05:43:31.705Z,100.00
2023-03-11T05:48:36.425Z,100.00
2023-03-11T05:53:39.973Z,100.00
2023-03-11T05:58:43.071Z,100.00
2023-03-11T06:03:47.721Z,100.00
2023-03-11T06:08:51.087Z,100.00
2023-03-11T06:13:55.461Z,100.00
2023-03-11T06:19:01.189Z,100.00
2023-03-11T06:24:04.404Z,100.00
2023-03-11T06:29:12.799Z,100.00
2023-03-11T06:34:18.697Z,100.00
2023-03-11T06:39:22.222Z,100.00
2023-03-11T06:44:25.811Z,100.00
2023-03-11T06:49:30.827Z,100.00
2023-03-11T06:54:36.849Z,100.00
2023-03-11T06:59:40.068Z,100.00
2023-03-11T07:04:44.910Z,100.00
2023-03-11T07:09:48.176Z,100.00
2023-03-11T07:14:51.349Z,100.00
2023-03-11T07:19:56.320Z,100.00
2023-03-11T07:24:59.502Z,100.00
2023-03-11T07:30:05.608Z,100.00
2023-03-11T07:35:11.401Z,100.00
2023-03-11T07:40:16.215Z,100.00
2023-03-11T07:45:20.057Z,100.00
2023-03-11T07:50:25.950Z,100.00
2023-03-11T07:55:29.131Z,100.00
2023-03-11T08:00:36.636Z,100.00
2023-03-11T08:05:41.309Z,100.00
2023-03-11T08:10:44.898Z,100.00
2023-03-11T08:16:14.292Z,100.00
2023-03-11T08:21:32.553Z,100.00
2023-03-11T08:26:35.837Z,100.00
2023-03-11T08:31:55.533Z,100.00
2023-03-11T08:37:38.004Z,100.00
2023-03-11T08:43:21.422Z,100.00
2023-03-11T08:48:27.042Z,100.00
2023-03-11T08:53:31.773Z,100.00
2023-03-11T08:58:35.670Z,100.00
2023-03-11T09:03:39.687Z,100.00
2023-03-11T09:08:50.758Z,100.00
2023-03-11T09:13:56.486Z,100.00
2023-03-11T09:19:04.341Z,100.00
2023-03-11T09:24:09.250Z,100.00
2023-03-11T09:29:15.871Z,100.00
2023-03-11T09:34:19.332Z,99.45
2023-03-11T09:39:28.261Z,98.92
2023-03-11T09:44:47.616Z,98.94
2023-03-11T09:50:25.081Z,97.32
2023-03-11T09:55:42.033Z,97.70
2023-03-11T10:00:46.103Z,97.44
2023-03-11T10:06:15.384Z,97.90
2023-03-11T10:11:45.651Z,97.25
2023-03-11T10:16:58.249Z,95.68
2023-03-11T10:22:13.675Z,96.36
2023-03-11T10:27:24.470Z,94.52
2023-03-11T10:32:40.963Z,94.41
2023-03-11T10:37:54.930Z,94.77
2023-03-11T10:43:10.081Z,93.00
2023-03-11T10:48:20.408Z,93.81
2023-03-11T10:53:24.011Z,92.86
2023-03-11T10:58:32.106Z,91.52
2023-03-11T11:03:36.188Z,92.70
2023-03-11T11:08:40.730Z,92.09
2023-03-11T11:13:57.841Z,92.30
2023-03-11T11:19:05.350Z,91.11
2023-03-11T11:24:19.864Z,90.07
2023-03-11T11:29:24.461Z,89.92
2023-03-11T11:34:33.610Z,90.01
2023-03-11T11:39:52.070Z,89.83
2023-03-11T11:45:02.130Z,88.72
2023-03-11T11:50:14.923Z,88.29
2023-03-11T11:55:21.613Z,87.83
2023-03-11T12:00:33.578Z,87.08
2023-03-11T12:05:45.288Z,86.80
2023-03-11T12:10:54.437Z,86.02
2023-03-11T12:16:06.781Z,86.68
2023-03-11T12:21:24.190Z,86.40
2023-03-11T12:26:34.472Z,85.13
2023-03-11T12:31:41.826Z,83.76
2023-03-11T12:36:47.947Z,83.17
2023-03-11T12:42:39.802Z,83.00
2023-03-11T12:47:44.352Z,83.46
2023-03-11T12:52:55.084Z,81.31
2023-03-11T12:58:23.944Z,81.68
2023-03-11T13:03:49.119Z,79.30
2023-03-11T13:08:56.532Z,80.79
2023-03-11T13:14:19.965Z,79.51
2023-03-11T13:19:56.513Z,78.32
2023-03-11T13:25:02.108Z,79.61
2023-03-11T13:30:14.907Z,79.15
2023-03-11T13:35:35.657Z,78.67
2023-03-11T13:40:46.650Z,79.25
2023-03-11T13:45:57.420Z,78.32
2023-03-11T13:51:06.280Z,77.21
2023-03-11T13:56:18.801Z,76.30
2023-03-11T14:01:22.838Z,77.46
2023-03-11T14:06:32.424Z,75.35
2023-03-11T14:11:35.918Z,76.33
2023-03-11T14:16:44.394Z,75.24
2023-03-11T14:21:51.505Z,72.37
2023-03-11T14:26:56.692Z,73.62
2023-03-11T14:32:02.840Z,72.69
2023-03-11T14:37:26.857Z,70.79
2023-03-11T14:42:35.925Z,70.85
2023-03-11T14:47:45.104Z,70.90
2023-03-11T14:52:53.886Z,68.97
2023-03-11T14:58:01.898Z,69.18
2023-03-11T15:03:20.450Z,67.72
2023-03-11T15:08:33.097Z,68.00
2023-03-11T15:13:37.502Z,67.53
2023-03-11T15:18:42.702Z,67.01
2023-03-11T15:23:55.750Z,66.62
2023-03-11T15:29:08.407Z,67.14
2023-03-11T15:34:23.793Z,68.35
2023-03-11T15:39:43.897Z,68.59
2023-03-11T15:45:02.226Z,69.43
2023-03-11T15:50:24.027Z,69.87
2023-03-11T15:55:30.121Z,70.12
2023-03-11T16:00:34.102Z,70.46
2023-03-11T16:05:39.045Z,70.62
2023-03-11T16:10:44.246Z,71.37
2023-03-11T16:15:48.139Z,71.45
2023-03-11T16:20:54.295Z,71.13
2023-03-11T16:26:02.554Z,72.55
2023-03-11T16:31:07.987Z,72.82
2023-03-11T16:36:12.451Z,74.30
2023-03-11T16:41:18.654Z,74.94
2023-03-11T16:46:22.584Z,74.92
2023-03-11T16:51:29.283Z,75.34
2023-03-11T16:56:34.131Z,75.97
2023-03-11T17:01:39.639Z,76.04
2023-03-11T17:06:47.111Z,76.43
2023-03-11T17:11:53.540Z,77.01
2023-03-11T17:16:57.091Z,77.53
2023-03-11T17:22:00.335Z,77.42
2023-03-11T17:27:06.555Z,77.81
2023-03-11T17:32:10.949Z,77.79
2023-03-11T17:37:14.622Z,77.66
2023-03-11T17:42:19.356Z,78.88
2023-03-11T17:47:26.301Z,78.89
2023-03-11T17:52:29.594Z,79.36
2023-03-11T17:57:44.444Z,79.15
2023-03-11T18:02:48.167Z,78.98
2023-03-11T18:07:51.668Z,79.92
2023-03-11T18:12:59.196Z,81.02
2023-03-11T18:18:02.514Z,81.89
2023-03-11T18:23:08.629Z,81.79
2023-03-11T18:28:16.234Z,81.80
2023-03-11T18:33:22.060Z,82.39
2023-03-11T18:38:25.651Z,82.20
2023-03-11T18:43:30.242Z,83.75
2023-03-11T18:48:33.963Z,83.42
2023-03-11T18:53:37.818Z,84.13
2023-03-11T18:58:42.854Z,84.58
2023-03-11T19:03:50.680Z,85.04
2023-03-11T19:08:54.785Z,85.42
2023-03-11T19:14:00.315Z,85.91
2023-03-11T19:19:03.462Z,86.66
2023-03-11T19:24:07.930Z,87.23
2023-03-11T19:29:12.754Z,87.67
2023-03-11T19:34:16.253Z,88.44
2023-03-11T19:39:21.449Z,89.10
2023-03-11T19:44:26.190Z,88.48
2023-03-11T19:49:29.502Z,88.62
2023-03-11T19:54:33.730Z,89.10
2023-03-11T19:59:38.562Z,89.17
2023-03-11T20:04:43.220Z,89.72
2023-03-11T20:09:49.387Z,89.76
2023-03-11T20:14:54.171Z,90.16
2023-03-11T20:19:57.503Z,90.52
2023-03-11T20:25:02.242Z,90.95
2023-03-11T20:30:08.547Z,91.41
2023-03-11T20:35:11.666Z,91.45
2023-03-11T20:40:17.512Z,92.30
2023-03-11T20:45:24.549Z,92.47
2023-03-11T20:50:27.790Z,92.97
2023-03-11T20:55:30.893Z,93.64
2023-03-11T21:00:35.665Z,93.81
2023-03-11T21:05:39.303Z,93.69
2023-03-11T21:10:42.690Z,94.50
2023-03-11T21:15:47.406Z,94.10
2023-03-11T21:20:50.607Z,93.91
2023-03-11T21:25:59.562Z,94.66
2023-03-11T21:31:06.304Z,94.88
2023-03-11T21:36:10.859Z,94.87
2023-03-11T21:41:16.913Z,95.14
2023-03-11T21:46:25.091Z,95.04
2023-03-11T21:51:29.399Z,94.52
2023-03-11T21:56:32.838Z,94.85
2023-03-11T22:01:38.549Z,95.20
2023-03-11T22:06:41.770Z,95.15
2023-03-11T22:11:44.971Z,94.91
2023-03-11T22:16:49.807Z,95.05
2023-03-11T22:21:53.052Z,94.52
2023-03-11T22:26:56.176Z,94.44
2023-03-11T22:32:00.763Z,94.64
2023-03-11T22:37:03.948Z,95.16
2023-03-11T22:42:07.633Z,95.48
2023-03-11T22:47:13.426Z,95.08
2023-03-11T22:52:17.184Z,95.94
2023-03-11T22:57:20.452Z,95.58
2023-03-11T23:02:25.060Z,95.50
2023-03-11T23:07:28.217Z,95.85
2023-03-11T23:12:31.292Z,96.17
2023-03-11T23:17:36.448Z,96.55
2023-03-11T23:22:40.685Z,96.93
2023-03-11T23:27:45.273Z,96.99
2023-03-11T23:32:50.329Z,97.00
2023-03-11T23:37:54.748Z,96.87
2023-03-11T23:42:57.889Z,97.47
2023-03-11T23:48:02.688Z,97.28
2023-03-11T23:53:05.894Z,97.66
2023-03-11T23:58:09.229Z,97.54
